Bandara Internasional Osaka, Jepang

08:19 AM JST on September 04, 2015 (GMT +0900)
Tokura-nishi | | Change Station
CLOSE
Current Station
Personal Weather Stations
Location: Toyonaka, OSAKA
Elevation: 16 ft
Nearby Weather Stations

Elev 16 ft 34.76 °N, 135.45 °E | Updated 0 second ago

Partly Cloudy
Mendung Sebagian
77.0 °F
Feels Like 79 °F
N
2.3
Angin Variable Angin from Dari Selatan ke Baratdaya
Gusts 2.3 mph

Siang Ini
High -- | Low -- °F
--% Chance of Precip.
Yesterday
High -- | Low -- °F
Precip. -- Inch
5:32 AM 6:21 PM
Waning Gibbous, 66% visible
Tekanan 29.86 Inch
Jarak Pandang 6.2 Mil
Awan Few 1500 ft
Ideks Panas 79 °F
Titik Embun 70 °F
Kelembaban 78%
Rainfall 0.00 Inch
Snow Depth Not available.
UV 0.0 out of 12
Pollen Not available.
Air Quality Not available.
Flu Activity Not available.
METAR RJOO 032300Z VRB01KT 9999 FEW015 25/21 Q1011 RMK 1CU015 A2985
Tekanan 29.86 Inch
Jarak Pandang 6.2 Mil
Awan Few 1500 ft
Ideks Panas 79 °F
Titik Embun 70 °F
Kelembaban 78%
Rainfall 0.00 Inch
Snow Depth Not available.
UV 0.0 out of 12
Pollen Not available.
Air Quality Not available.
Flu Activity Not available.
METAR RJOO 032300Z VRB01KT 9999 FEW015 25/21 Q1011 RMK 1CU015 A2985

10-Day Weather Forecast

×

Almanac

Astronomi

Sep. 04, 2015 Rise Set
Actual Time
Civil Twilight
Nautical Twilight
Astronomical Twilight
Moon
Length Of Visible Light
Lama Satu Hari
Tomorrow will be .
, % of the Moon is Illuminated

Today's Extremes

Country Highs Country Lows

Community

WunderPhotos

Upload Photos

1,852,060 photos uploaded!

WunderBlogs® & News

Nearby

Air Quality

  Air Quality AQ Index Pollutant
Not available.

Snow Depth

Station Depth Elevation

Earthquake Activity

City Distance Mag. Time & Date
Minimum magnitude displayed is 2.5.

Coastal Water Temperatures

Lokasi Temperatur

Stations

Nearby Weather Stations

Station Location Temp Angin Dingin Titik Embun Kelembaban Angin Precip. Elev Telah Diperbaharui Type